Main page
METAR-TAF:

METAR-TAF

Airports :

Kadala Airport

Chita, Russia

latitude: 52-05N, longitude: 113-29E, elevation: 685 m

Current weather observation

The report was made 24 minutes ago, at 20:00 UTC
Wind 4 kt from the West/Southwest
Temperature 10°C
Humidity 93%
Pressure 1006 hPa
Visibility 10 km or more

METAR: UIAA 182000Z 24002MPS 9999 NSC 10/09 Q1006 R29/70D NOSIG RMK QFE696/0929

Time: 05:24 (20:24 UTC)

Forecast

The report was made 3 hours and 24 minutes ago, at 17:00 UTC
Forecast valid from 18 at 18 UTC to 19 at 18 UTC
Wind 10 kt from the West
Visibility 10 km or more
Broken clouds at a height of 3000 ft, Cumulonimbus.

TAF: UIAA 181700Z 1818/1918 28005MPS 9999 BKN030CB

Weather observations and forecasts of more than 4000 airports (METAR and TAF reports).

The available stations are represented by yellow and red dots on the map.

Hover mouse over dot to see the name of the station.

Then click to see weather observations and forecasts.

To change the map : click on the green buttons with a black cross to zoom in, on the green button with a dash to zoom out, or on the green arrows for adjacent maps.


METAR-TAF: